sensor_id;sensor_type;location;lat;lon;timestamp;P1;durP1;ratioP1;P2;durP2;ratioP2
948;SDS011;461;51.436;7.312;2023-05-06T07:40:51;13.90;;;10.03;;
948;SDS011;461;51.436;7.312;2023-05-06T07:43:20;9.63;;;8.47;;
948;SDS011;461;51.436;7.312;2023-05-06T07:46:13;9.07;;;8.13;;
948;SDS011;461;51.436;7.312;2023-05-06T11:04:29;2.67;;;1.50;;
948;SDS011;461;51.436;7.312;2023-05-06T11:07:20;2.23;;;1.60;;
948;SDS011;461;51.436;7.312;2023-05-06T11:09:55;2.80;;;1.93;;
948;SDS011;461;51.436;7.312;2023-05-06T11:12:22;2.50;;;1.40;;
948;SDS011;461;51.436;7.312;2023-05-06T11:15:23;2.40;;;1.50;;
948;SDS011;461;51.436;7.312;2023-05-06T11:17:51;1.93;;;1.60;;
948;SDS011;461;51.436;7.312;2023-05-06T11:22:44;2.17;;;1.70;;
948;SDS011;461;51.436;7.312;2023-05-06T11:25:10;2.57;;;1.40;;
948;SDS011;461;51.436;7.312;2023-05-06T11:27:36;2.30;;;1.50;;
948;SDS011;461;51.436;7.312;2023-05-06T11:30:03;3.60;;;1.60;;
948;SDS011;461;51.436;7.312;2023-05-06T11:32:29;4.70;;;1.60;;
948;SDS011;461;51.436;7.312;2023-05-06T11:34:57;5.33;;;1.83;;
948;SDS011;461;51.436;7.312;2023-05-06T11:37:24;1.83;;;1.70;;
948;SDS011;461;51.436;7.312;2023-05-06T11:39:50;2.30;;;1.60;;
948;SDS011;461;51.436;7.312;2023-05-06T11:42:23;1.93;;;1.63;;
948;SDS011;461;51.436;7.312;2023-05-06T11:44:51;2.40;;;1.53;;
948;SDS011;461;51.436;7.312;2023-05-06T11:47:19;2.57;;;1.63;;
948;SDS011;461;51.436;7.312;2023-05-06T11:49:46;2.80;;;1.73;;
948;SDS011;461;51.436;7.312;2023-05-06T11:52:17;2.93;;;1.60;;
948;SDS011;461;51.436;7.312;2023-05-06T11:54:44;1.60;;;1.50;;
948;SDS011;461;51.436;7.312;2023-05-06T11:57:11;2.67;;;1.30;;
948;SDS011;461;51.436;7.312;2023-05-06T11:59:38;1.97;;;1.27;;
948;SDS011;461;51.436;7.312;2023-05-06T12:02:08;2.53;;;1.57;;
948;SDS011;461;51.436;7.312;2023-05-06T12:04:46;2.97;;;1.50;;
948;SDS011;461;51.436;7.312;2023-05-06T12:07:14;3.50;;;1.63;;
948;SDS011;461;51.436;7.312;2023-05-06T12:09:41;4.20;;;1.70;;
948;SDS011;461;51.436;7.312;2023-05-06T12:12:07;1.60;;;1.27;;
948;SDS011;461;51.436;7.312;2023-05-06T12:14:34;4.53;;;1.70;;
948;SDS011;461;51.436;7.312;2023-05-06T12:17:01;5.53;;;1.57;;
948;SDS011;461;51.436;7.312;2023-05-06T12:19:28;1.83;;;1.50;;
948;SDS011;461;51.436;7.312;2023-05-06T12:21:54;2.37;;;1.60;;
948;SDS011;461;51.436;7.312;2023-05-06T12:24:28;2.60;;;2.00;;
948;SDS011;461;51.436;7.312;2023-05-06T12:26:54;3.77;;;1.73;;
948;SDS011;461;51.436;7.312;2023-05-06T12:29:20;3.57;;;1.80;;
948;SDS011;461;51.436;7.312;2023-05-06T12:31:47;6.20;;;2.73;;
948;SDS011;461;51.436;7.312;2023-05-06T12:34:13;3.33;;;1.80;;
948;SDS011;461;51.436;7.312;2023-05-06T12:36:43;1.90;;;1.67;;
948;SDS011;461;51.436;7.312;2023-05-06T12:39:10;4.00;;;1.70;;
948;SDS011;461;51.436;7.312;2023-05-06T12:41:38;2.90;;;1.43;;
948;SDS011;461;51.436;7.312;2023-05-06T12:46:49;2.37;;;1.60;;
948;SDS011;461;51.436;7.312;2023-05-06T12:49:16;2.20;;;1.80;;
948;SDS011;461;51.436;7.312;2023-05-06T12:51:42;2.90;;;1.60;;
948;SDS011;461;51.436;7.312;2023-05-06T12:56:53;2.50;;;1.60;;
948;SDS011;461;51.436;7.312;2023-05-06T12:59:19;2.70;;;1.87;;
948;SDS011;461;51.436;7.312;2023-05-06T13:01:45;2.60;;;1.57;;
948;SDS011;461;51.436;7.312;2023-05-06T13:04:11;6.17;;;1.50;;
948;SDS011;461;51.436;7.312;2023-05-06T13:06:38;1.87;;;1.20;;
948;SDS011;461;51.436;7.312;2023-05-06T13:09:04;2.47;;;1.20;;
948;SDS011;461;51.436;7.312;2023-05-06T14:59:57;2.90;;;1.67;;
948;SDS011;461;51.436;7.312;2023-05-06T15:06:12;2.93;;;1.47;;
948;SDS011;461;51.436;7.312;2023-05-06T15:56:29;3.10;;;1.73;;
948;SDS011;461;51.436;7.312;2023-05-06T16:02:03;8.40;;;1.60;;
948;SDS011;461;51.436;7.312;2023-05-06T16:04:32;8.70;;;2.00;;
948;SDS011;461;51.436;7.312;2023-05-06T16:07:00;2.73;;;1.50;;
948;SDS011;461;51.436;7.312;2023-05-06T16:09:26;5.33;;;2.10;;
948;SDS011;461;51.436;7.312;2023-05-06T16:11:56;1.90;;;1.60;;
948;SDS011;461;51.436;7.312;2023-05-06T16:14:22;2.30;;;1.40;;
948;SDS011;461;51.436;7.312;2023-05-06T16:16:48;3.27;;;1.90;;
948;SDS011;461;51.436;7.312;2023-05-06T16:19:14;2.77;;;1.83;;
948;SDS011;461;51.436;7.312;2023-05-06T16:21:40;3.60;;;1.87;;
948;SDS011;461;51.436;7.312;2023-05-06T16:24:06;2.87;;;1.40;;
948;SDS011;461;51.436;7.312;2023-05-06T16:26:32;3.67;;;1.90;;
948;SDS011;461;51.436;7.312;2023-05-06T16:28:59;3.33;;;1.83;;
948;SDS011;461;51.436;7.312;2023-05-06T16:31:25;3.50;;;1.80;;
948;SDS011;461;51.436;7.312;2023-05-06T16:33:52;3.80;;;2.00;;
948;SDS011;461;51.436;7.312;2023-05-06T16:36:18;4.80;;;2.10;;
948;SDS011;461;51.436;7.312;2023-05-06T16:38:49;8.03;;;2.20;;
948;SDS011;461;51.436;7.312;2023-05-06T16:41:15;4.50;;;2.00;;
948;SDS011;461;51.436;7.312;2023-05-06T18:43:10;4.47;;;3.80;;
948;SDS011;461;51.436;7.312;2023-05-06T18:54:39;3.93;;;3.03;;
948;SDS011;461;51.436;7.312;2023-05-06T19:00:12;4.03;;;3.20;;
948;SDS011;461;51.436;7.312;2023-05-06T19:05:36;4.77;;;3.43;;
948;SDS011;461;51.436;7.312;2023-05-06T19:08:34;5.13;;;4.63;;
948;SDS011;461;51.436;7.312;2023-05-06T19:11:15;6.50;;;5.50;;
